Bookmark and Share
Track history (hours):
 

Free Maverick

Last reported at 2014-Apr-20 17:34 UTC. Time now 2014-Apr-21 12:09 UTC.
Position N 36°44' E 012°54'.

Length 153 m; draft 9 m.

Type: Cargo ship. MMSI: 636013999.

NotesDate/timePositionNaut miles runAvg speedWind from/ knotsBaromVisibWave heightAir tempDewpointWater temp
2014-Apr-20 17:34N 36°44' E 012°54'1312.8
2014-Apr-20 16:33N 36°39' E 013°08'1212.3
2014-Apr-20 15:33N 36°33' E 013°22'1312.4
2014-Apr-20 14:33N 36°27' E 013°36'1212.1
2014-Apr-20 13:33N 36°25' E 013°50'1312.7
2014-Apr-20 12:33N 36°25' E 014°06'1312.7
2014-Apr-20 11:34N 36°24' E 014°22'1312.6
2014-Apr-20 10:33N 36°24' E 014°37'  
2014-Apr-17 23:32N 39°50' E 025°46'  
2014-Apr-14 21:29N 40°27' E 027°09'0 0.0
2014-Apr-14 20:29N 40°27' E 027°09'39 0.9
2014-Apr-12 23:08N 40°10' E 026°24'35 9.7
2014-Apr-12 19:32N 39°49' E 025°46'136 9.7
2014-Apr-12 05:32N 37°39' E 024°53'1010.3
2014-Apr-12 04:33N 37°32' E 025°02'7 7.1
2014-Apr-12 03:33N 37°26' E 025°06'6 5.5
2014-Apr-12 02:31N 37°25' E 024°59'0 0.0
2014-Apr-12 01:31N 37°25' E 024°59'0 0.0
2014-Apr-12 00:33N 37°25' E 024°59'3 2.9
2014-Apr-11 23:33N 37°22' E 024°58'1110.5
2014-Apr-11 22:33N 37°19' E 024°46'1010.4
2014-Apr-11 21:33N 37°16' E 024°33'1110.5
2014-Apr-11 20:32N 37°12' E 024°21'1010.0
2014-Apr-11 19:33N 37°07' E 024°10'8 7.8
2014-Apr-11 18:33N 37°02' E 024°03'9 7.9
2014-Apr-11 17:27N 36°57' E 023°53'9 7.7
2014-Apr-11 16:16N 36°51' E 023°45'  

Dump ship's entire track history

sailing weather and tide predictions

Free Maverick — A8GH3 — position and weather